createdAt,value
2018-09-14T00:00:13.697Z,17.01
2018-09-14T00:01:13.879Z,17.08
2018-09-14T00:02:14.053Z,17.02
2018-09-14T00:03:14.244Z,17.06
2018-09-14T00:04:14.398Z,17.05
2018-09-14T00:05:14.561Z,17.06
2018-09-14T00:06:14.750Z,17.15
2018-09-14T00:07:14.937Z,17.19
2018-09-14T00:08:15.090Z,17.12
2018-09-14T00:09:15.255Z,17.19
2018-09-14T00:10:15.411Z,17.06
2018-09-14T00:11:15.580Z,17.04
2018-09-14T00:12:15.745Z,16.97
2018-09-14T00:13:15.924Z,16.90
2018-09-14T00:14:16.092Z,16.94
2018-09-14T00:15:16.279Z,17.01
2018-09-14T00:16:16.452Z,16.99
2018-09-14T00:17:16.654Z,16.96
2018-09-14T00:18:16.803Z,16.99
2018-09-14T00:19:16.975Z,17.11
2018-09-14T00:20:17.148Z,17.02
2018-09-14T00:21:17.315Z,17.05
2018-09-14T00:22:17.488Z,17.11
2018-09-14T00:23:17.647Z,17.19
2018-09-14T00:24:17.822Z,17.22
2018-09-14T00:25:18.003Z,17.15
2018-09-14T00:26:18.176Z,17.20
2018-09-14T00:27:18.343Z,17.16
2018-09-14T00:28:18.522Z,17.16
2018-09-14T00:29:18.686Z,17.08
2018-09-14T00:30:18.861Z,17.06
2018-09-14T00:31:19.037Z,17.05
2018-09-14T00:32:19.208Z,17.05
2018-09-14T00:33:19.382Z,17.12
2018-09-14T00:34:19.567Z,17.14
2018-09-14T00:35:19.762Z,17.05
2018-09-14T00:36:19.912Z,17.12
2018-09-14T00:37:20.081Z,17.20
2018-09-14T00:38:20.254Z,17.16
2018-09-14T00:39:20.426Z,17.22
2018-09-14T00:40:20.598Z,17.14
2018-09-14T00:41:20.778Z,17.06
2018-09-14T00:42:20.963Z,17.05
2018-09-14T00:43:21.135Z,16.91
2018-09-14T00:44:21.300Z,16.87
2018-09-14T00:45:21.471Z,16.90
2018-09-14T00:46:21.667Z,16.84
2018-09-14T00:47:21.817Z,16.75
2018-09-14T00:48:21.984Z,16.86
2018-09-14T00:49:22.145Z,16.81
2018-09-14T00:50:22.323Z,16.83
2018-09-14T00:51:22.498Z,16.86
2018-09-14T00:52:22.653Z,16.91
2018-09-14T00:53:22.828Z,16.96
2018-09-14T00:54:22.987Z,16.94
2018-09-14T00:55:23.172Z,16.93
2018-09-14T00:56:23.328Z,16.86
2018-09-14T00:57:23.511Z,16.86
2018-09-14T00:58:23.671Z,16.83
2018-09-14T00:59:23.853Z,16.84
2018-09-14T01:00:24.025Z,16.84
2018-09-14T01:01:24.201Z,16.86
2018-09-14T01:02:24.372Z,16.83
2018-09-14T01:03:24.560Z,16.89
2018-09-14T01:04:24.734Z,16.81
2018-09-14T01:05:24.904Z,16.91
2018-09-14T01:06:25.091Z,16.93
2018-09-14T01:07:25.264Z,16.93
2018-09-14T01:08:25.441Z,16.90
2018-09-14T01:09:25.617Z,16.94
2018-09-14T01:10:25.790Z,16.86
2018-09-14T01:11:25.974Z,16.81
2018-09-14T01:12:26.136Z,16.78
2018-09-14T01:13:26.300Z,16.72
2018-09-14T01:14:26.476Z,16.76
2018-09-14T01:15:26.658Z,16.75
2018-09-14T01:16:26.815Z,16.76
2018-09-14T01:17:26.985Z,16.79
2018-09-14T01:18:27.150Z,16.75
2018-09-14T01:19:27.343Z,16.81
2018-09-14T01:20:27.527Z,16.76
2018-09-14T01:21:27.690Z,16.74
2018-09-14T01:22:27.884Z,16.81
2018-09-14T01:23:28.053Z,16.84
2018-09-14T01:24:28.223Z,16.84
2018-09-14T01:25:28.394Z,16.78
2018-09-14T01:26:28.574Z,16.75
2018-09-14T01:27:28.756Z,16.68
2018-09-14T01:28:28.923Z,16.68
2018-09-14T01:29:29.104Z,16.60
2018-09-14T01:30:29.266Z,16.66
2018-09-14T01:31:29.432Z,16.72
2018-09-14T01:32:29.605Z,16.72
2018-09-14T01:33:29.804Z,16.71
2018-09-14T01:34:29.958Z,16.74
2018-09-14T01:35:30.111Z,16.72
2018-09-14T01:36:30.285Z,16.75
2018-09-14T01:37:30.462Z,16.78
2018-09-14T01:38:30.637Z,16.66
2018-09-14T01:39:30.805Z,16.75
2018-09-14T01:40:30.987Z,16.69
2018-09-14T01:41:31.175Z,16.60
2018-09-14T01:42:31.337Z,16.71
2018-09-14T01:43:31.514Z,16.72
2018-09-14T01:44:31.681Z,16.61
2018-09-14T01:45:31.843Z,16.68
2018-09-14T01:46:31.996Z,16.72
2018-09-14T01:47:32.165Z,16.75
2018-09-14T01:48:32.366Z,16.65
2018-09-14T01:49:32.541Z,16.66
2018-09-14T01:50:32.728Z,16.65
2018-09-14T01:51:32.895Z,16.72
2018-09-14T01:52:33.055Z,16.64
2018-09-14T01:53:33.225Z,16.72
2018-09-14T01:54:33.380Z,16.64
2018-09-14T01:55:33.546Z,16.56
2018-09-14T01:56:33.722Z,16.58
2018-09-14T01:57:33.892Z,16.58
2018-09-14T01:58:34.065Z,16.57
2018-09-14T01:59:34.238Z,16.46
2018-09-14T02:00:34.404Z,16.51
2018-09-14T02:01:34.597Z,16.42
2018-09-14T02:02:34.774Z,16.33
2018-09-14T02:03:35.026Z,16.32
2018-09-14T02:04:35.131Z,16.49
2018-09-14T02:05:35.301Z,16.51
2018-09-14T02:06:35.465Z,16.50
2018-09-14T02:07:35.641Z,16.50
2018-09-14T02:08:35.812Z,16.39
2018-09-14T02:09:35.986Z,16.47
2018-09-14T02:10:36.151Z,16.50
2018-09-14T02:11:36.331Z,16.50
2018-09-14T02:12:36.479Z,16.53
2018-09-14T02:13:36.664Z,16.53
2018-09-14T02:14:36.829Z,16.53
2018-09-14T02:15:36.984Z,16.64
2018-09-14T02:16:37.155Z,16.56
2018-09-14T02:17:37.338Z,16.36
2018-09-14T02:18:37.521Z,16.49
2018-09-14T02:19:37.683Z,16.50
2018-09-14T02:20:37.842Z,16.51
2018-09-14T02:21:38.005Z,16.51
2018-09-14T02:22:38.178Z,16.42
2018-09-14T02:23:38.353Z,16.53
2018-09-14T02:24:38.535Z,16.57
2018-09-14T02:25:38.757Z,16.57
2018-09-14T02:26:38.892Z,16.54
2018-09-14T02:27:39.068Z,16.54
2018-09-14T02:28:39.227Z,16.56
2018-09-14T02:29:39.394Z,16.58
2018-09-14T02:30:39.555Z,16.51
2018-09-14T02:31:39.772Z,16.43
2018-09-14T02:32:39.915Z,16.50
2018-09-14T02:33:40.075Z,16.46
2018-09-14T02:34:40.289Z,16.38
2018-09-14T02:35:40.407Z,16.46
2018-09-14T02:36:40.580Z,16.50
2018-09-14T02:37:40.767Z,16.47
2018-09-14T02:38:40.897Z,16.49
2018-09-14T02:39:41.064Z,16.53
2018-09-14T02:40:41.251Z,16.50
2018-09-14T02:41:41.418Z,16.56
2018-09-14T02:42:41.589Z,16.53
2018-09-14T02:43:41.752Z,16.50
2018-09-14T02:44:41.924Z,16.57
2018-09-14T02:45:42.097Z,16.64
2018-09-14T02:46:42.275Z,16.60
2018-09-14T02:47:42.435Z,16.69
2018-09-14T02:48:42.603Z,16.61
2018-09-14T02:49:42.796Z,16.50
2018-09-14T02:50:42.934Z,16.64
2018-09-14T02:51:43.110Z,16.51
2018-09-14T02:52:43.309Z,16.61
2018-09-14T02:53:43.467Z,16.51
2018-09-14T02:54:43.640Z,16.39
2018-09-14T02:55:43.835Z,16.41
2018-09-14T02:56:44.014Z,16.53
2018-09-14T02:57:44.197Z,16.50
2018-09-14T02:58:44.357Z,16.58
2018-09-14T02:59:44.520Z,16.53
2018-09-14T03:00:44.699Z,16.53
2018-09-14T03:01:44.873Z,16.54
2018-09-14T03:02:45.060Z,16.42
2018-09-14T03:03:45.231Z,16.43
2018-09-14T03:04:45.399Z,16.39
2018-09-14T03:05:45.577Z,16.43
2018-09-14T03:06:45.759Z,16.42
2018-09-14T03:07:45.928Z,16.39
2018-09-14T03:08:46.105Z,16.38
2018-09-14T03:09:46.271Z,16.43
2018-09-14T03:10:46.454Z,16.42
2018-09-14T03:11:46.621Z,16.46
2018-09-14T03:12:46.805Z,16.43
2018-09-14T03:13:46.969Z,16.42
2018-09-14T03:14:47.140Z,16.46
2018-09-14T03:15:47.336Z,16.42
2018-09-14T03:16:47.498Z,16.41
2018-09-14T03:17:47.661Z,16.46
2018-09-14T03:18:47.851Z,16.49
2018-09-14T03:19:48.018Z,16.58
2018-09-14T03:20:48.173Z,16.54
2018-09-14T03:21:48.350Z,16.43
2018-09-14T03:22:48.512Z,16.53
2018-09-14T03:23:48.678Z,16.53
2018-09-14T03:24:48.865Z,16.47
2018-09-14T03:25:49.075Z,16.58
2018-09-14T03:26:49.194Z,16.42
2018-09-14T03:27:49.389Z,16.53
2018-09-14T03:28:49.557Z,16.47
2018-09-14T03:29:49.731Z,16.54
2018-09-14T03:30:49.911Z,16.47
2018-09-14T03:31:50.088Z,16.29
2018-09-14T03:32:50.257Z,16.43
2018-09-14T03:33:50.450Z,16.38
2018-09-14T03:34:50.591Z,16.36
2018-09-14T03:35:50.766Z,16.39
2018-09-14T03:36:50.946Z,16.43
2018-09-14T03:37:51.119Z,16.43
2018-09-14T03:38:51.292Z,16.42
2018-09-14T03:39:51.463Z,16.42
2018-09-14T03:40:51.630Z,16.42
2018-09-14T03:41:51.790Z,16.42
2018-09-14T03:42:51.966Z,16.47
2018-09-14T03:43:52.149Z,16.46
2018-09-14T03:44:52.327Z,16.39
2018-09-14T03:45:52.495Z,16.46
2018-09-14T03:46:52.692Z,16.36
2018-09-14T03:47:52.852Z,16.33
2018-09-14T03:48:53.035Z,16.28
2018-09-14T03:49:53.216Z,16.31
2018-09-14T03:50:53.393Z,16.28
2018-09-14T03:51:53.577Z,16.20
2018-09-14T03:52:53.751Z,16.16
2018-09-14T03:53:53.924Z,16.13
2018-09-14T03:54:54.112Z,16.10
2018-09-14T03:55:54.298Z,16.21
2018-09-14T03:56:54.454Z,16.10
2018-09-14T03:57:54.625Z,16.10
2018-09-14T03:58:54.792Z,16.20
2018-09-14T03:59:54.966Z,16.17
2018-09-14T04:00:55.138Z,16.23
2018-09-14T04:01:55.317Z,16.28
2018-09-14T04:02:55.486Z,16.20
2018-09-14T04:03:55.667Z,16.23
2018-09-14T04:04:55.860Z,16.29
2018-09-14T04:05:55.998Z,16.26
2018-09-14T04:06:56.179Z,16.24
2018-09-14T04:07:56.433Z,16.26
2018-09-14T04:08:56.548Z,16.26
2018-09-14T04:09:56.719Z,16.20
2018-09-14T04:10:56.909Z,16.29
2018-09-14T04:11:57.061Z,16.26
2018-09-14T04:12:57.218Z,16.24
2018-09-14T04:13:57.388Z,16.15
2018-09-14T04:14:57.558Z,16.17
2018-09-14T04:15:57.733Z,16.17
2018-09-14T04:16:57.891Z,16.26
2018-09-14T04:17:58.058Z,16.29
2018-09-14T04:18:58.222Z,16.23
2018-09-14T04:19:58.406Z,16.23
2018-09-14T04:20:58.554Z,16.20
2018-09-14T04:21:58.732Z,16.28
2018-09-14T04:22:58.925Z,16.21
2018-09-14T04:23:59.090Z,16.21
2018-09-14T04:24:59.261Z,16.12
2018-09-14T04:25:59.421Z,16.16
2018-09-14T04:26:59.581Z,16.21
2018-09-14T04:27:59.761Z,16.28
2018-09-14T04:28:59.935Z,16.09
2018-09-14T04:30:00.103Z,16.00
2018-09-14T04:31:00.286Z,16.05
2018-09-14T04:32:00.465Z,16.00
2018-09-14T04:33:00.624Z,16.04
2018-09-14T04:34:00.803Z,15.90
2018-09-14T04:35:00.976Z,15.97
2018-09-14T04:36:01.150Z,15.94
2018-09-14T04:37:01.330Z,15.92
2018-09-14T04:38:01.507Z,16.00
2018-09-14T04:39:01.661Z,16.02
2018-09-14T04:40:01.842Z,15.95
2018-09-14T04:41:02.030Z,15.94
2018-09-14T04:42:02.199Z,15.90
2018-09-14T04:43:02.354Z,15.88
2018-09-14T04:44:02.515Z,15.90
2018-09-14T04:45:02.742Z,15.95
2018-09-14T04:46:02.863Z,15.88
2018-09-14T04:47:03.060Z,15.91
2018-09-14T04:48:03.198Z,15.86
2018-09-14T04:49:03.348Z,15.92
2018-09-14T04:50:03.535Z,15.97
2018-09-14T04:51:03.715Z,16.00
2018-09-14T04:52:03.875Z,16.00
2018-09-14T04:53:04.035Z,16.02
2018-09-14T04:54:04.174Z,16.01
2018-09-14T04:55:04.377Z,16.02
2018-09-14T04:56:04.530Z,16.01
2018-09-14T04:57:04.706Z,15.98
2018-09-14T04:58:04.870Z,15.98
2018-09-14T04:59:05.071Z,16.15
2018-09-14T05:00:05.237Z,16.09
2018-09-14T05:01:05.391Z,16.10
2018-09-14T05:02:05.562Z,16.02
2018-09-14T05:03:05.759Z,16.00
2018-09-14T05:04:05.910Z,16.01
2018-09-14T05:05:06.092Z,16.10
2018-09-14T05:06:06.266Z,16.00
2018-09-14T05:07:06.488Z,16.02
2018-09-14T05:08:06.593Z,15.97
2018-09-14T05:09:06.759Z,15.92
2018-09-14T05:10:06.966Z,15.90
2018-09-14T05:11:07.070Z,15.91
2018-09-14T05:12:07.230Z,15.98
2018-09-14T05:13:07.405Z,16.01
2018-09-14T05:14:07.570Z,15.94
2018-09-14T05:15:07.739Z,15.86
2018-09-14T05:16:07.890Z,15.95
2018-09-14T05:17:08.067Z,15.92
2018-09-14T05:18:08.241Z,15.90
2018-09-14T05:19:08.411Z,15.92
2018-09-14T05:20:08.597Z,15.86
2018-09-14T05:21:08.773Z,15.82
2018-09-14T05:22:08.945Z,15.77
2018-09-14T05:23:09.147Z,15.75
2018-09-14T05:24:09.466Z,15.80
2018-09-14T05:25:09.569Z,15.76
2018-09-14T05:26:09.663Z,15.77
2018-09-14T05:27:09.824Z,15.79
2018-09-14T05:28:10.019Z,15.86
2018-09-14T05:29:10.169Z,15.83
2018-09-14T05:30:10.327Z,15.84
2018-09-14T05:31:10.488Z,15.82
2018-09-14T05:32:10.667Z,15.79
2018-09-14T05:33:10.818Z,15.77
2018-09-14T05:34:10.995Z,15.79
2018-09-14T05:35:11.164Z,15.86
2018-09-14T05:36:11.327Z,15.92
2018-09-14T05:37:11.505Z,15.91
2018-09-14T05:38:11.690Z,15.83
2018-09-14T05:39:11.818Z,15.76
2018-09-14T05:40:11.979Z,15.65
2018-09-14T05:41:12.191Z,15.67
2018-09-14T05:42:12.349Z,15.72
2018-09-14T05:43:12.507Z,15.76
2018-09-14T05:44:12.673Z,15.77
2018-09-14T05:45:12.847Z,15.75
2018-09-14T05:46:13.011Z,15.86
2018-09-14T05:47:13.187Z,15.83
2018-09-14T05:48:13.412Z,15.91
2018-09-14T05:49:13.538Z,15.83
2018-09-14T05:50:13.740Z,15.80
2018-09-14T05:51:13.907Z,15.86
2018-09-14T05:52:14.062Z,15.88
2018-09-14T05:53:14.240Z,15.94
2018-09-14T05:54:14.426Z,15.84
2018-09-14T05:55:14.553Z,15.98
2018-09-14T05:56:14.773Z,15.90
2018-09-14T05:57:14.909Z,15.72
2018-09-14T05:58:15.091Z,15.88
2018-09-14T05:59:15.245Z,16.20
2018-09-14T06:00:15.411Z,16.31
2018-09-14T06:01:15.590Z,16.35
2018-09-14T06:02:15.767Z,16.49
2018-09-14T06:03:15.932Z,16.51
2018-09-14T06:04:16.122Z,16.49
2018-09-14T06:05:16.306Z,16.41
2018-09-14T06:06:16.470Z,16.42
2018-09-14T06:07:16.670Z,16.49
2018-09-14T06:08:16.848Z,16.43
2018-09-14T06:09:17.022Z,16.42
2018-09-14T06:10:17.206Z,16.39
2018-09-14T06:11:17.389Z,16.36
2018-09-14T06:12:17.600Z,16.33
2018-09-14T06:13:17.736Z,16.29
2018-09-14T06:14:17.922Z,16.33
2018-09-14T06:15:18.102Z,16.39
2018-09-14T06:16:18.268Z,16.28
2018-09-14T06:17:18.463Z,16.31
2018-09-14T06:18:18.593Z,16.21
2018-09-14T06:19:18.778Z,16.16
2018-09-14T06:20:18.979Z,16.15
2018-09-14T06:21:19.124Z,16.23
2018-09-14T06:22:19.287Z,16.24
2018-09-14T06:23:19.436Z,16.39
2018-09-14T06:24:19.607Z,16.42
2018-09-14T06:25:19.800Z,16.36
2018-09-14T06:26:19.955Z,16.36
2018-09-14T06:27:20.124Z,16.32
2018-09-14T06:28:20.343Z,16.32
2018-09-14T06:29:20.456Z,16.36
2018-09-14T06:30:20.705Z,16.33
2018-09-14T06:31:20.799Z,16.16
2018-09-14T06:32:20.957Z,16.32
2018-09-14T06:33:21.145Z,16.33
2018-09-14T06:34:21.290Z,16.36
2018-09-14T06:35:21.511Z,16.36
2018-09-14T06:36:21.665Z,16.42
2018-09-14T06:37:21.835Z,16.35
2018-09-14T06:38:22.023Z,16.46
2018-09-14T06:39:22.195Z,16.39
2018-09-14T06:40:22.371Z,16.46
2018-09-14T06:41:22.522Z,16.47
2018-09-14T06:42:22.684Z,16.61
2018-09-14T06:43:22.864Z,16.57
2018-09-14T06:44:23.018Z,16.66
2018-09-14T06:45:23.281Z,16.61
2018-09-14T06:46:23.383Z,16.54
2018-09-14T06:47:23.564Z,16.51
2018-09-14T06:49:23.959Z,16.46
2018-09-14T06:50:24.109Z,16.43
2018-09-14T06:51:24.295Z,16.50
2018-09-14T06:52:24.472Z,16.50
2018-09-14T06:53:24.692Z,16.50
2018-09-14T06:54:24.775Z,16.49
2018-09-14T06:55:24.948Z,16.41
2018-09-14T06:56:25.137Z,16.47
2018-09-14T06:57:25.272Z,16.41
2018-09-14T06:58:25.447Z,16.21
2018-09-14T06:59:25.636Z,16.16
2018-09-14T07:00:25.913Z,16.28
2018-09-14T07:01:25.953Z,16.39
2018-09-14T07:02:26.138Z,16.26
2018-09-14T07:03:26.303Z,16.36
2018-09-14T07:04:26.496Z,16.46
2018-09-14T07:05:26.613Z,16.47
2018-09-14T07:06:26.821Z,16.54
2018-09-14T07:07:26.952Z,16.57
2018-09-14T07:08:27.154Z,16.51
2018-09-14T07:09:27.283Z,16.56
2018-09-14T07:10:27.471Z,16.66
2018-09-14T07:11:27.670Z,16.60
2018-09-14T07:12:27.786Z,16.60
2018-09-14T07:13:27.966Z,16.50
2018-09-14T07:14:28.123Z,16.58
2018-09-14T07:15:28.292Z,16.43
2018-09-14T07:16:28.455Z,16.61
2018-09-14T07:17:28.620Z,16.61
2018-09-14T07:18:28.821Z,16.68
2018-09-14T07:19:28.967Z,16.68
2018-09-14T07:20:29.208Z,16.65
2018-09-14T07:21:29.308Z,16.53
2018-09-14T07:22:29.493Z,16.50
2018-09-14T07:23:29.662Z,16.50
2018-09-14T07:24:29.946Z,16.49
2018-09-14T07:25:29.997Z,16.43
2018-09-14T07:26:30.173Z,16.46
2018-09-14T07:27:30.377Z,16.33
2018-09-14T07:28:30.569Z,16.41
2018-09-14T07:29:30.703Z,16.39
2018-09-14T07:30:30.889Z,16.42
2018-09-14T07:31:31.052Z,16.38
2018-09-14T07:32:31.218Z,16.42
2018-09-14T07:33:31.415Z,16.49
2018-09-14T07:34:31.539Z,16.60
2018-09-14T07:35:31.725Z,16.61
2018-09-14T07:36:31.926Z,16.71
2018-09-14T07:37:32.031Z,16.66
2018-09-14T07:38:32.233Z,16.49
2018-09-14T07:39:32.395Z,16.54
2018-09-14T07:40:32.547Z,16.57
2018-09-14T07:41:32.701Z,16.65
2018-09-14T07:42:32.881Z,16.71
2018-09-14T07:43:33.043Z,16.71
2018-09-14T07:44:33.188Z,16.68
2018-09-14T07:45:33.362Z,16.47
2018-09-14T07:46:33.549Z,16.56
2018-09-14T07:47:33.696Z,16.56
2018-09-14T07:48:33.866Z,16.69
2018-09-14T07:49:34.060Z,16.75
2018-09-14T07:50:34.213Z,16.76
2018-09-14T07:51:34.378Z,16.87
2018-09-14T07:52:34.544Z,16.89
2018-09-14T07:53:34.754Z,16.86
2018-09-14T07:54:34.911Z,16.87
2018-09-14T07:55:35.210Z,16.91
2018-09-14T07:56:35.268Z,17.02
2018-09-14T07:57:35.443Z,17.06
2018-09-14T07:58:35.619Z,17.04
2018-09-14T07:59:35.787Z,17.14
2018-09-14T08:00:36.157Z,17.23
2018-09-14T08:01:36.086Z,17.39
2018-09-14T08:02:36.284Z,17.54
2018-09-14T08:03:36.496Z,17.51
2018-09-14T08:04:36.715Z,17.52
2018-09-14T08:05:36.791Z,17.49
2018-09-14T08:06:36.945Z,17.60
2018-09-14T08:07:37.139Z,17.49
2018-09-14T08:08:37.347Z,17.52
2018-09-14T08:09:37.466Z,17.57
2018-09-14T08:10:37.626Z,17.76
2018-09-14T08:11:37.801Z,17.87
2018-09-14T08:12:37.988Z,17.90
2018-09-14T08:13:38.152Z,17.95
2018-09-14T08:14:38.330Z,17.97
2018-09-14T08:15:38.538Z,18.04
2018-09-14T08:16:38.704Z,18.18
2018-09-14T08:17:38.855Z,18.28
2018-09-14T08:18:39.031Z,18.18
2018-09-14T08:19:39.221Z,18.20
2018-09-14T08:20:39.410Z,18.22
2018-09-14T08:21:39.688Z,18.13
2018-09-14T08:22:39.747Z,17.79
2018-09-14T08:23:39.946Z,17.52
2018-09-14T08:24:40.093Z,17.45
2018-09-14T08:25:40.262Z,17.57
2018-09-14T08:26:40.473Z,17.65
2018-09-14T08:27:40.689Z,17.87
2018-09-14T08:28:40.833Z,17.86
2018-09-14T08:29:40.997Z,17.64
2018-09-14T08:30:41.174Z,17.59
2018-09-14T08:31:41.604Z,17.52
2018-09-14T08:32:41.508Z,18.04
2018-09-14T08:33:41.685Z,18.34
2018-09-14T08:34:41.857Z,18.13
2018-09-14T08:35:42.014Z,18.19
2018-09-14T08:36:42.198Z,18.28
2018-09-14T08:37:42.376Z,18.35
2018-09-14T08:38:42.656Z,18.35
2018-09-14T08:39:42.707Z,18.44
2018-09-14T08:40:42.929Z,18.58
2018-09-14T08:41:43.077Z,18.65
2018-09-14T08:42:43.269Z,18.70
2018-09-14T08:43:43.493Z,18.63
2018-09-14T08:44:43.670Z,18.81
2018-09-14T08:45:43.841Z,19.07
2018-09-14T08:46:44.019Z,19.14
2018-09-14T08:47:44.220Z,18.60
2018-09-14T08:48:44.364Z,19.04
2018-09-14T08:49:44.535Z,18.34
2018-09-14T08:50:44.743Z,18.63
2018-09-14T08:51:44.876Z,18.71
2018-09-14T08:52:45.065Z,18.63
2018-09-14T08:53:45.330Z,18.90
2018-09-14T08:54:45.405Z,19.44
2018-09-14T08:55:45.571Z,20.51
2018-09-14T08:56:45.824Z,21.09
2018-09-14T08:57:45.948Z,21.66
2018-09-14T08:58:46.203Z,22.07
2018-09-14T08:59:46.260Z,22.69
2018-09-14T09:00:46.459Z,22.45
2018-09-14T09:01:46.610Z,22.80
2018-09-14T09:02:46.823Z,22.51
2018-09-14T09:03:47.016Z,22.88
2018-09-14T09:04:47.139Z,22.62
2018-09-14T09:05:47.314Z,23.12
2018-09-14T09:06:47.504Z,23.23
2018-09-14T09:07:47.698Z,22.90
2018-09-14T09:08:47.856Z,23.08
2018-09-14T09:09:48.046Z,22.18
2018-09-14T09:10:48.205Z,20.80
2018-09-14T09:11:48.384Z,20.95
2018-09-14T09:12:48.584Z,21.54
2018-09-14T09:13:48.726Z,21.05
2018-09-14T09:14:48.900Z,21.57
2018-09-14T09:15:49.075Z,21.69
2018-09-14T09:16:49.223Z,21.66
2018-09-14T09:17:49.530Z,20.70
2018-09-14T09:18:49.588Z,20.51
2018-09-14T09:19:49.761Z,20.11
2018-09-14T09:20:49.936Z,20.28
2018-09-14T09:21:50.104Z,20.36
2018-09-14T09:22:50.266Z,21.00
2018-09-14T09:23:50.445Z,21.64
2018-09-14T09:24:50.629Z,22.07
2018-09-14T09:25:50.814Z,22.18
2018-09-14T09:26:51.005Z,22.69
2018-09-14T09:27:51.185Z,23.13
2018-09-14T09:28:51.370Z,22.75
2018-09-14T09:29:51.565Z,22.84
2018-09-14T09:30:51.734Z,22.76
2018-09-14T09:31:52.021Z,22.48
2018-09-14T09:32:52.071Z,21.58
2018-09-14T09:33:52.272Z,20.74
2018-09-14T09:34:52.420Z,19.81
2018-09-14T09:35:52.584Z,19.96
2018-09-14T09:36:52.762Z,20.48
2018-09-14T09:37:52.943Z,21.11
2018-09-14T09:38:53.138Z,21.24
2018-09-14T09:39:53.322Z,21.40
2018-09-14T09:40:53.500Z,21.45
2018-09-14T09:41:53.684Z,21.51
2018-09-14T09:42:53.854Z,22.25
2018-09-14T09:43:54.067Z,22.62
2018-09-14T09:44:54.235Z,22.80
2018-09-14T09:45:54.396Z,23.06
2018-09-14T09:46:54.591Z,23.20
2018-09-14T09:47:54.756Z,23.46
2018-09-14T09:48:54.950Z,23.87
2018-09-14T09:49:55.144Z,23.71
2018-09-14T09:50:55.327Z,24.05
2018-09-14T09:51:55.454Z,24.48
2018-09-14T09:52:55.689Z,24.23
2018-09-14T09:53:55.831Z,23.58
2018-09-14T09:54:56.011Z,23.81
2018-09-14T09:55:56.276Z,24.02
2018-09-14T09:56:56.350Z,24.45
2018-09-14T09:57:56.527Z,24.23
2018-09-14T09:58:56.696Z,23.80
2018-09-14T09:59:56.914Z,22.84
2018-09-14T10:00:57.074Z,23.17
2018-09-14T10:01:57.258Z,22.59
2018-09-14T10:02:57.439Z,22.38
2018-09-14T10:03:57.657Z,21.60
2018-09-14T10:04:57.829Z,22.32
2018-09-14T10:05:58.060Z,23.20
2018-09-14T10:06:58.225Z,23.59
2018-09-14T10:07:58.357Z,24.57
2018-09-14T10:08:58.548Z,23.83
2018-09-14T10:09:58.746Z,24.02
2018-09-14T10:10:58.887Z,23.66
2018-09-14T10:11:59.078Z,22.43
2018-09-14T10:12:59.247Z,22.78
2018-09-14T10:13:59.541Z,22.70
2018-09-14T10:15:00.649Z,22.80
2018-09-14T10:15:59.936Z,23.78
2018-09-14T10:17:00.075Z,24.48
2018-09-14T10:18:00.302Z,24.68
2018-09-14T10:19:00.502Z,24.47
2018-09-14T10:20:00.559Z,24.57
2018-09-14T10:21:00.792Z,24.23
2018-09-14T10:22:00.925Z,24.95
2018-09-14T10:23:01.121Z,25.41
2018-09-14T10:24:01.280Z,24.66
2018-09-14T10:25:01.484Z,24.54
2018-09-14T10:26:01.763Z,23.84
2018-09-14T10:27:01.856Z,22.66
2018-09-14T10:28:02.033Z,22.57
2018-09-14T10:29:02.352Z,22.69
2018-09-14T10:30:02.456Z,23.31
2018-09-14T10:31:02.576Z,23.13
2018-09-14T10:32:02.788Z,23.08
2018-09-14T10:33:03.042Z,23.32
2018-09-14T10:34:03.257Z,23.74
2018-09-14T10:35:03.424Z,24.06
2018-09-14T10:36:03.575Z,23.86
2018-09-14T10:37:03.834Z,23.48
2018-09-14T10:38:03.972Z,23.37
2018-09-14T10:39:04.115Z,23.27
2018-09-14T10:40:04.445Z,23.40
2018-09-14T10:41:04.466Z,22.81
2018-09-14T10:42:04.661Z,22.39
2018-09-14T10:43:04.834Z,22.32
2018-09-14T10:44:05.028Z,22.32
2018-09-14T10:45:05.217Z,22.26
2018-09-14T10:46:05.379Z,21.83
2018-09-14T10:47:05.556Z,22.00
2018-09-14T10:48:05.725Z,22.08
2018-09-14T10:49:05.935Z,22.06
2018-09-14T10:50:06.111Z,22.18
2018-09-14T10:51:06.260Z,22.32
2018-09-14T10:52:06.434Z,22.35
2018-09-14T10:53:06.622Z,22.26
2018-09-14T10:54:06.885Z,22.33
2018-09-14T10:55:06.978Z,22.39
2018-09-14T10:56:07.184Z,22.60
2018-09-14T10:57:07.319Z,22.68
2018-09-14T10:58:07.513Z,22.81
2018-09-14T10:59:07.690Z,22.60
2018-09-14T11:00:07.857Z,22.50
2018-09-14T11:01:07.987Z,22.68
2018-09-14T11:02:08.181Z,22.69
2018-09-14T11:03:09.052Z,22.80
2018-09-14T11:04:08.529Z,22.65
2018-09-14T11:05:08.711Z,22.20
2018-09-14T11:06:08.967Z,22.45
2018-09-14T11:07:09.098Z,21.92
2018-09-14T11:08:09.238Z,21.62
2018-09-14T11:09:09.403Z,21.79
2018-09-14T11:10:09.586Z,21.35
2018-09-14T11:11:09.783Z,21.66
2018-09-14T11:12:09.972Z,22.06
2018-09-14T11:13:10.144Z,22.10
2018-09-14T11:14:10.434Z,22.14
2018-09-14T11:15:10.527Z,22.43
2018-09-14T11:16:10.683Z,22.65
2018-09-14T11:17:10.849Z,22.83
2018-09-14T11:18:11.062Z,23.03
2018-09-14T11:19:11.203Z,23.12
2018-09-14T11:20:11.381Z,23.24
2018-09-14T11:21:11.556Z,23.21
2018-09-14T11:22:11.737Z,22.93
2018-09-14T11:23:11.926Z,22.50
2018-09-14T11:24:12.113Z,22.41
2018-09-14T11:25:12.338Z,22.69
2018-09-14T11:26:12.445Z,22.85
2018-09-14T11:27:12.618Z,22.81
2018-09-14T11:28:12.803Z,22.94
2018-09-14T11:29:12.986Z,22.84
2018-09-14T11:30:13.160Z,23.00
2018-09-14T11:31:13.379Z,23.10
2018-09-14T11:32:13.595Z,23.41
2018-09-14T11:33:13.750Z,23.48
2018-09-14T11:34:13.970Z,23.59
2018-09-14T11:35:14.059Z,23.46
2018-09-14T11:36:14.223Z,23.59
2018-09-14T11:37:14.487Z,23.44
2018-09-14T11:38:14.691Z,23.47
2018-09-14T11:39:14.792Z,23.59
2018-09-14T11:40:14.965Z,23.65
2018-09-14T11:41:15.119Z,23.61
2018-09-14T11:42:15.311Z,23.66
2018-09-14T11:43:15.463Z,23.77
2018-09-14T11:44:15.642Z,23.84
2018-09-14T11:45:15.860Z,23.48
2018-09-14T11:46:15.995Z,22.99
2018-09-14T11:47:16.165Z,23.10
2018-09-14T11:48:16.341Z,22.85
2018-09-14T11:49:16.534Z,23.00
2018-09-14T11:50:16.722Z,23.08
2018-09-14T11:51:16.911Z,23.27
2018-09-14T11:52:17.055Z,23.32
2018-09-14T11:53:17.228Z,23.54
2018-09-14T11:54:17.527Z,23.65
2018-09-14T11:55:17.603Z,23.80
2018-09-14T11:56:17.757Z,23.95
2018-09-14T11:57:17.929Z,24.14
2018-09-14T11:58:18.163Z,23.88
2018-09-14T11:59:18.302Z,23.87
2018-09-14T12:00:18.466Z,23.87
2018-09-14T12:01:18.667Z,23.76
2018-09-14T12:02:18.811Z,23.28
2018-09-14T12:03:18.976Z,23.05
2018-09-14T12:04:19.253Z,22.76
2018-09-14T12:05:19.320Z,22.54
2018-09-14T12:06:19.496Z,22.65
2018-09-14T12:07:19.686Z,22.80
2018-09-14T12:08:19.856Z,22.96
2018-09-14T12:09:20.036Z,22.96
2018-09-14T12:10:20.216Z,22.80
2018-09-14T12:11:20.414Z,23.05
2018-09-14T12:12:20.559Z,23.17
2018-09-14T12:13:20.762Z,23.10
2018-09-14T12:14:20.885Z,23.34
2018-09-14T12:15:21.049Z,22.99
2018-09-14T12:16:21.246Z,22.88
2018-09-14T12:17:21.393Z,22.93
2018-09-14T12:18:21.561Z,23.13
2018-09-14T12:19:21.729Z,23.20
2018-09-14T12:20:21.906Z,23.46
2018-09-14T12:21:22.069Z,23.55
2018-09-14T12:22:22.427Z,23.47
2018-09-14T12:23:22.424Z,23.39
2018-09-14T12:24:22.843Z,23.37
2018-09-14T12:25:22.794Z,23.58
2018-09-14T12:26:25.369Z,23.37
2018-09-14T12:27:23.162Z,23.56
2018-09-14T12:28:23.401Z,23.73
2018-09-14T12:29:23.529Z,23.80
2018-09-14T12:30:23.710Z,23.88
2018-09-14T12:31:23.891Z,23.95
2018-09-14T12:32:24.068Z,24.01
2018-09-14T12:33:24.244Z,24.18
2018-09-14T12:34:24.416Z,24.18
2018-09-14T12:35:24.595Z,24.14
2018-09-14T12:36:24.764Z,24.20
2018-09-14T12:38:25.138Z,24.11
2018-09-14T12:39:25.301Z,23.87
2018-09-14T12:40:25.457Z,23.83
2018-09-14T12:41:25.618Z,24.06
2018-09-14T12:42:25.815Z,24.32
2018-09-14T12:43:25.975Z,24.28
2018-09-14T12:44:26.163Z,24.42
2018-09-14T12:45:26.370Z,24.45
2018-09-14T12:46:26.545Z,24.54
2018-09-14T12:47:26.743Z,24.61
2018-09-14T12:48:26.884Z,24.42
2018-09-14T12:49:27.084Z,24.55
2018-09-14T12:50:27.279Z,24.32
2018-09-14T12:51:27.442Z,24.32
2018-09-14T12:52:27.649Z,24.45
2018-09-14T12:53:27.841Z,24.40
2018-09-14T12:54:28.063Z,24.42
2018-09-14T12:55:28.264Z,24.55
2018-09-14T12:56:28.433Z,24.43